sensor_id;sensor_type;location;lat;lon;timestamp;P1;durP1;ratioP1;P2;durP2;ratioP2
2892;SDS011;1456;51.840;12.184;2023-05-07T00:01:58;0.70;;;0.70;;
2892;SDS011;1456;51.840;12.184;2023-05-07T00:04:23;0.50;;;0.50;;
2892;SDS011;1456;51.840;12.184;2023-05-07T00:06:49;1.50;;;1.40;;
2892;SDS011;1456;51.840;12.184;2023-05-07T00:09:15;2.33;;;1.37;;
2892;SDS011;1456;51.840;12.184;2023-05-07T00:11:41;7.40;;;1.53;;
2892;SDS011;1456;51.840;12.184;2023-05-07T00:14:08;6.03;;;1.50;;
2892;SDS011;1456;51.840;12.184;2023-05-07T00:16:33;1.60;;;1.50;;
2892;SDS011;1456;51.840;12.184;2023-05-07T00:18:59;2.03;;;0.90;;
2892;SDS011;1456;51.840;12.184;2023-05-07T00:21:25;0.80;;;0.80;;
2892;SDS011;1456;51.840;12.184;2023-05-07T00:23:54;0.87;;;0.70;;
2892;SDS011;1456;51.840;12.184;2023-05-07T00:26:19;0.60;;;0.60;;
2892;SDS011;1456;51.840;12.184;2023-05-07T00:28:45;1.07;;;0.93;;
2892;SDS011;1456;51.840;12.184;2023-05-07T00:31:12;2.93;;;1.20;;
2892;SDS011;1456;51.840;12.184;2023-05-07T00:33:38;1.10;;;1.00;;
2892;SDS011;1456;51.840;12.184;2023-05-07T00:36:04;1.70;;;0.97;;
2892;SDS011;1456;51.840;12.184;2023-05-07T00:38:29;1.30;;;1.30;;
2892;SDS011;1456;51.840;12.184;2023-05-07T00:40:55;1.10;;;1.10;;
2892;SDS011;1456;51.840;12.184;2023-05-07T00:43:21;1.90;;;1.80;;
2892;SDS011;1456;51.840;12.184;2023-05-07T00:45:47;1.57;;;1.47;;
2892;SDS011;1456;51.840;12.184;2023-05-07T00:48:13;1.50;;;1.40;;
2892;SDS011;1456;51.840;12.184;2023-05-07T00:50:40;0.93;;;0.90;;
2892;SDS011;1456;51.840;12.184;2023-05-07T00:53:06;1.00;;;0.80;;
2892;SDS011;1456;51.840;12.184;2023-05-07T00:55:32;0.77;;;0.77;;
2892;SDS011;1456;51.840;12.184;2023-05-07T00:57:59;0.50;;;0.50;;
2892;SDS011;1456;51.840;12.184;2023-05-07T01:00:25;1.07;;;0.73;;
2892;SDS011;1456;51.840;12.184;2023-05-07T01:02:51;0.80;;;0.70;;
2892;SDS011;1456;51.840;12.184;2023-05-07T01:05:19;0.57;;;0.57;;
2892;SDS011;1456;51.840;12.184;2023-05-07T01:07:49;0.87;;;0.87;;
2892;SDS011;1456;51.840;12.184;2023-05-07T01:10:17;2.00;;;0.60;;
2892;SDS011;1456;51.840;12.184;2023-05-07T01:12:44;0.80;;;0.80;;
2892;SDS011;1456;51.840;12.184;2023-05-07T01:15:12;0.60;;;0.60;;
2892;SDS011;1456;51.840;12.184;2023-05-07T01:17:40;0.70;;;0.70;;
2892;SDS011;1456;51.840;12.184;2023-05-07T01:20:08;2.50;;;0.83;;
2892;SDS011;1456;51.840;12.184;2023-05-07T01:22:39;0.77;;;0.77;;
2892;SDS011;1456;51.840;12.184;2023-05-07T01:25:05;1.97;;;1.77;;
2892;SDS011;1456;51.840;12.184;2023-05-07T01:27:34;0.97;;;0.73;;
2892;SDS011;1456;51.840;12.184;2023-05-07T01:30:01;0.70;;;0.70;;
2892;SDS011;1456;51.840;12.184;2023-05-07T01:32:41;1.57;;;1.47;;
2892;SDS011;1456;51.840;12.184;2023-05-07T01:35:12;1.33;;;1.23;;
2892;SDS011;1456;51.840;12.184;2023-05-07T01:37:55;1.20;;;1.20;;
2892;SDS011;1456;51.840;12.184;2023-05-07T01:40:23;2.97;;;2.60;;
2892;SDS011;1456;51.840;12.184;2023-05-07T01:42:50;2.10;;;2.00;;
2892;SDS011;1456;51.840;12.184;2023-05-07T01:45:18;1.00;;;1.00;;
2892;SDS011;1456;51.840;12.184;2023-05-07T01:47:44;1.67;;;1.57;;
2892;SDS011;1456;51.840;12.184;2023-05-07T01:50:10;0.60;;;0.60;;
2892;SDS011;1456;51.840;12.184;2023-05-07T01:52:41;1.80;;;1.63;;
2892;SDS011;1456;51.840;12.184;2023-05-07T01:55:08;1.73;;;1.63;;
2892;SDS011;1456;51.840;12.184;2023-05-07T01:57:33;1.77;;;1.60;;
2892;SDS011;1456;51.840;12.184;2023-05-07T02:00:00;1.37;;;1.37;;
2892;SDS011;1456;51.840;12.184;2023-05-07T02:02:27;1.13;;;1.13;;
2892;SDS011;1456;51.840;12.184;2023-05-07T02:04:53;1.80;;;1.50;;
2892;SDS011;1456;51.840;12.184;2023-05-07T02:07:22;1.43;;;1.33;;
2892;SDS011;1456;51.840;12.184;2023-05-07T02:09:48;1.03;;;0.73;;
2892;SDS011;1456;51.840;12.184;2023-05-07T02:12:13;1.57;;;1.47;;
2892;SDS011;1456;51.840;12.184;2023-05-07T02:14:39;0.90;;;0.90;;
2892;SDS011;1456;51.840;12.184;2023-05-07T02:17:04;0.80;;;0.70;;
2892;SDS011;1456;51.840;12.184;2023-05-07T02:19:30;1.67;;;1.53;;
2892;SDS011;1456;51.840;12.184;2023-05-07T02:21:56;3.80;;;1.63;;
2892;SDS011;1456;51.840;12.184;2023-05-07T02:24:23;1.33;;;1.23;;
2892;SDS011;1456;51.840;12.184;2023-05-07T02:26:49;0.93;;;0.93;;
2892;SDS011;1456;51.840;12.184;2023-05-07T02:29:15;1.30;;;1.23;;
2892;SDS011;1456;51.840;12.184;2023-05-07T02:31:41;0.53;;;0.53;;
2892;SDS011;1456;51.840;12.184;2023-05-07T02:34:08;7.00;;;4.90;;
2892;SDS011;1456;51.840;12.184;2023-05-07T02:36:34;1.40;;;1.27;;
2892;SDS011;1456;51.840;12.184;2023-05-07T02:39:01;1.33;;;0.70;;
2892;SDS011;1456;51.840;12.184;2023-05-07T02:41:27;1.50;;;1.50;;
2892;SDS011;1456;51.840;12.184;2023-05-07T02:43:54;0.97;;;0.97;;
2892;SDS011;1456;51.840;12.184;2023-05-07T02:46:19;1.63;;;1.53;;
2892;SDS011;1456;51.840;12.184;2023-05-07T02:48:45;3.50;;;2.30;;
2892;SDS011;1456;51.840;12.184;2023-05-07T02:51:11;2.37;;;2.27;;
2892;SDS011;1456;51.840;12.184;2023-05-07T02:53:36;2.67;;;1.87;;
2892;SDS011;1456;51.840;12.184;2023-05-07T02:56:02;0.90;;;0.90;;
2892;SDS011;1456;51.840;12.184;2023-05-07T02:58:28;0.77;;;0.77;;
2892;SDS011;1456;51.840;12.184;2023-05-07T03:00:53;0.77;;;0.77;;
2892;SDS011;1456;51.840;12.184;2023-05-07T03:03:19;4.63;;;2.90;;
2892;SDS011;1456;51.840;12.184;2023-05-07T03:05:45;0.70;;;0.70;;
2892;SDS011;1456;51.840;12.184;2023-05-07T03:08:11;1.07;;;1.03;;
2892;SDS011;1456;51.840;12.184;2023-05-07T03:10:37;2.00;;;1.43;;
2892;SDS011;1456;51.840;12.184;2023-05-07T03:13:03;1.40;;;1.30;;
2892;SDS011;1456;51.840;12.184;2023-05-07T03:15:29;2.30;;;2.10;;
2892;SDS011;1456;51.840;12.184;2023-05-07T03:17:55;1.00;;;1.00;;
2892;SDS011;1456;51.840;12.184;2023-05-07T03:20:21;2.20;;;1.17;;
2892;SDS011;1456;51.840;12.184;2023-05-07T03:22:46;1.13;;;1.13;;
2892;SDS011;1456;51.840;12.184;2023-05-07T03:25:12;1.27;;;1.27;;
2892;SDS011;1456;51.840;12.184;2023-05-07T03:27:39;1.20;;;1.20;;
2892;SDS011;1456;51.840;12.184;2023-05-07T03:30:05;2.17;;;2.07;;
2892;SDS011;1456;51.840;12.184;2023-05-07T03:32:31;0.67;;;0.67;;
2892;SDS011;1456;51.840;12.184;2023-05-07T03:34:59;1.90;;;1.80;;
2892;SDS011;1456;51.840;12.184;2023-05-07T03:37:25;1.63;;;1.53;;
2892;SDS011;1456;51.840;12.184;2023-05-07T03:39:50;1.97;;;1.87;;
2892;SDS011;1456;51.840;12.184;2023-05-07T03:42:16;0.77;;;0.77;;
2892;SDS011;1456;51.840;12.184;2023-05-07T03:44:42;1.60;;;1.60;;
2892;SDS011;1456;51.840;12.184;2023-05-07T03:47:07;2.20;;;2.10;;
2892;SDS011;1456;51.840;12.184;2023-05-07T03:49:33;1.23;;;1.13;;
2892;SDS011;1456;51.840;12.184;2023-05-07T03:52:00;2.07;;;2.00;;
2892;SDS011;1456;51.840;12.184;2023-05-07T03:54:25;1.43;;;1.33;;
2892;SDS011;1456;51.840;12.184;2023-05-07T03:56:51;1.90;;;0.67;;
2892;SDS011;1456;51.840;12.184;2023-05-07T03:59:17;1.33;;;1.23;;
2892;SDS011;1456;51.840;12.184;2023-05-07T04:01:43;1.43;;;0.77;;
2892;SDS011;1456;51.840;12.184;2023-05-07T04:04:09;2.13;;;2.03;;
2892;SDS011;1456;51.840;12.184;2023-05-07T04:06:36;1.03;;;0.87;;
2892;SDS011;1456;51.840;12.184;2023-05-07T04:09:02;1.27;;;1.17;;
2892;SDS011;1456;51.840;12.184;2023-05-07T04:11:28;1.60;;;1.00;;
2892;SDS011;1456;51.840;12.184;2023-05-07T04:13:54;2.80;;;1.43;;
2892;SDS011;1456;51.840;12.184;2023-05-07T04:16:19;0.93;;;0.50;;
2892;SDS011;1456;51.840;12.184;2023-05-07T04:18:45;1.03;;;0.97;;
2892;SDS011;1456;51.840;12.184;2023-05-07T04:21:17;1.27;;;0.80;;
2892;SDS011;1456;51.840;12.184;2023-05-07T04:23:44;1.90;;;1.73;;
2892;SDS011;1456;51.840;12.184;2023-05-07T04:26:10;1.13;;;1.13;;
2892;SDS011;1456;51.840;12.184;2023-05-07T04:28:38;0.40;;;0.30;;
2892;SDS011;1456;51.840;12.184;2023-05-07T04:31:06;1.23;;;0.93;;
2892;SDS011;1456;51.840;12.184;2023-05-07T04:33:33;0.87;;;0.87;;
2892;SDS011;1456;51.840;12.184;2023-05-07T04:36:03;0.73;;;0.73;;
2892;SDS011;1456;51.840;12.184;2023-05-07T04:38:32;3.80;;;1.23;;
2892;SDS011;1456;51.840;12.184;2023-05-07T04:41:05;0.90;;;0.90;;
2892;SDS011;1456;51.840;12.184;2023-05-07T04:43:31;0.73;;;0.73;;
2892;SDS011;1456;51.840;12.184;2023-05-07T04:45:57;0.40;;;0.30;;
2892;SDS011;1456;51.840;12.184;2023-05-07T04:48:29;0.97;;;0.90;;
2892;SDS011;1456;51.840;12.184;2023-05-07T04:50:55;4.47;;;1.53;;
2892;SDS011;1456;51.840;12.184;2023-05-07T04:53:20;0.40;;;0.40;;
2892;SDS011;1456;51.840;12.184;2023-05-07T04:55:47;1.07;;;0.80;;
2892;SDS011;1456;51.840;12.184;2023-05-07T04:58:14;2.80;;;2.50;;
2892;SDS011;1456;51.840;12.184;2023-05-07T05:00:40;0.50;;;0.50;;
2892;SDS011;1456;51.840;12.184;2023-05-07T05:03:07;0.40;;;0.40;;
2892;SDS011;1456;51.840;12.184;2023-05-07T05:05:33;0.53;;;0.53;;
2892;SDS011;1456;51.840;12.184;2023-05-07T05:07:59;1.87;;;1.70;;
2892;SDS011;1456;51.840;12.184;2023-05-07T05:10:24;0.30;;;0.30;;
2892;SDS011;1456;51.840;12.184;2023-05-07T05:12:50;0.50;;;0.50;;
2892;SDS011;1456;51.840;12.184;2023-05-07T05:15:16;0.50;;;0.50;;
2892;SDS011;1456;51.840;12.184;2023-05-07T05:17:42;0.73;;;0.73;;
2892;SDS011;1456;51.840;12.184;2023-05-07T05:20:08;1.03;;;1.03;;
2892;SDS011;1456;51.840;12.184;2023-05-07T05:22:38;2.07;;;2.07;;
2892;SDS011;1456;51.840;12.184;2023-05-07T05:25:04;1.63;;;1.07;;
2892;SDS011;1456;51.840;12.184;2023-05-07T05:27:29;1.70;;;1.63;;
2892;SDS011;1456;51.840;12.184;2023-05-07T05:29:55;0.70;;;0.70;;
2892;SDS011;1456;51.840;12.184;2023-05-07T05:32:21;0.93;;;0.40;;
2892;SDS011;1456;51.840;12.184;2023-05-07T05:34:47;0.83;;;0.70;;
2892;SDS011;1456;51.840;12.184;2023-05-07T05:37:13;0.60;;;0.60;;
2892;SDS011;1456;51.840;12.184;2023-05-07T05:39:38;1.13;;;1.03;;
2892;SDS011;1456;51.840;12.184;2023-05-07T05:42:05;0.80;;;0.80;;
2892;SDS011;1456;51.840;12.184;2023-05-07T05:44:31;0.73;;;0.73;;
2892;SDS011;1456;51.840;12.184;2023-05-07T05:46:58;0.93;;;0.93;;
2892;SDS011;1456;51.840;12.184;2023-05-07T05:49:24;0.70;;;0.70;;
2892;SDS011;1456;51.840;12.184;2023-05-07T05:51:50;1.37;;;1.37;;
2892;SDS011;1456;51.840;12.184;2023-05-07T05:54:15;1.40;;;1.33;;
2892;SDS011;1456;51.840;12.184;2023-05-07T05:56:41;1.00;;;0.40;;
2892;SDS011;1456;51.840;12.184;2023-05-07T05:59:07;2.20;;;0.60;;
2892;SDS011;1456;51.840;12.184;2023-05-07T06:01:33;0.77;;;0.70;;
2892;SDS011;1456;51.840;12.184;2023-05-07T06:03:58;0.37;;;0.37;;
2892;SDS011;1456;51.840;12.184;2023-05-07T06:06:24;0.40;;;0.40;;
2892;SDS011;1456;51.840;12.184;2023-05-07T06:08:50;1.90;;;1.40;;
2892;SDS011;1456;51.840;12.184;2023-05-07T06:11:16;1.50;;;1.40;;
2892;SDS011;1456;51.840;12.184;2023-05-07T06:13:43;0.60;;;0.60;;
2892;SDS011;1456;51.840;12.184;2023-05-07T06:16:08;0.67;;;0.67;;
2892;SDS011;1456;51.840;12.184;2023-05-07T06:18:35;0.40;;;0.30;;
2892;SDS011;1456;51.840;12.184;2023-05-07T06:21:01;0.97;;;0.50;;
2892;SDS011;1456;51.840;12.184;2023-05-07T06:23:29;0.70;;;0.70;;
2892;SDS011;1456;51.840;12.184;2023-05-07T06:25:57;0.37;;;0.37;;
2892;SDS011;1456;51.840;12.184;2023-05-07T06:28:23;0.63;;;0.63;;
2892;SDS011;1456;51.840;12.184;2023-05-07T06:30:49;1.50;;;1.50;;
2892;SDS011;1456;51.840;12.184;2023-05-07T06:33:16;0.40;;;0.40;;
2892;SDS011;1456;51.840;12.184;2023-05-07T06:35:42;3.47;;;3.27;;
2892;SDS011;1456;51.840;12.184;2023-05-07T06:38:08;1.00;;;1.00;;
2892;SDS011;1456;51.840;12.184;2023-05-07T06:40:35;1.80;;;1.53;;
2892;SDS011;1456;51.840;12.184;2023-05-07T06:43:01;2.20;;;0.70;;
2892;SDS011;1456;51.840;12.184;2023-05-07T06:45:28;1.33;;;0.87;;
2892;SDS011;1456;51.840;12.184;2023-05-07T06:47:53;0.60;;;0.60;;
2892;SDS011;1456;51.840;12.184;2023-05-07T06:50:19;0.50;;;0.50;;
2892;SDS011;1456;51.840;12.184;2023-05-07T06:52:45;0.60;;;0.60;;
2892;SDS011;1456;51.840;12.184;2023-05-07T06:55:12;0.50;;;0.50;;
2892;SDS011;1456;51.840;12.184;2023-05-07T06:57:38;0.90;;;0.90;;
2892;SDS011;1456;51.840;12.184;2023-05-07T07:00:04;1.33;;;0.70;;
2892;SDS011;1456;51.840;12.184;2023-05-07T07:02:33;0.53;;;0.53;;
2892;SDS011;1456;51.840;12.184;2023-05-07T07:05:02;0.93;;;0.83;;
2892;SDS011;1456;51.840;12.184;2023-05-07T07:07:28;0.83;;;0.67;;
2892;SDS011;1456;51.840;12.184;2023-05-07T07:09:54;0.80;;;0.80;;
2892;SDS011;1456;51.840;12.184;2023-05-07T07:12:20;0.40;;;0.40;;
2892;SDS011;1456;51.840;12.184;2023-05-07T07:14:48;0.83;;;0.83;;
2892;SDS011;1456;51.840;12.184;2023-05-07T07:17:14;0.50;;;0.50;;
2892;SDS011;1456;51.840;12.184;2023-05-07T07:19:40;2.40;;;1.20;;
2892;SDS011;1456;51.840;12.184;2023-05-07T07:22:06;1.37;;;1.37;;
2892;SDS011;1456;51.840;12.184;2023-05-07T07:24:32;2.20;;;0.73;;
2892;SDS011;1456;51.840;12.184;2023-05-07T07:26:58;0.87;;;0.87;;
2892;SDS011;1456;51.840;12.184;2023-05-07T07:29:24;0.40;;;0.40;;
2892;SDS011;1456;51.840;12.184;2023-05-07T07:31:51;0.50;;;0.50;;
2892;SDS011;1456;51.840;12.184;2023-05-07T07:34:18;0.50;;;0.50;;
2892;SDS011;1456;51.840;12.184;2023-05-07T07:36:43;0.60;;;0.60;;
2892;SDS011;1456;51.840;12.184;2023-05-07T07:39:11;0.40;;;0.40;;
2892;SDS011;1456;51.840;12.184;2023-05-07T07:41:37;9.77;;;8.87;;
2892;SDS011;1456;51.840;12.184;2023-05-07T07:44:03;5.93;;;5.60;;
2892;SDS011;1456;51.840;12.184;2023-05-07T07:46:33;0.63;;;0.63;;
2892;SDS011;1456;51.840;12.184;2023-05-07T07:48:58;0.73;;;0.73;;
2892;SDS011;1456;51.840;12.184;2023-05-07T07:51:24;1.53;;;1.43;;
2892;SDS011;1456;51.840;12.184;2023-05-07T07:53:51;1.27;;;1.23;;
2892;SDS011;1456;51.840;12.184;2023-05-07T07:56:17;0.77;;;0.77;;
2892;SDS011;1456;51.840;12.184;2023-05-07T07:58:42;1.23;;;1.23;;
2892;SDS011;1456;51.840;12.184;2023-05-07T08:01:08;0.50;;;0.50;;
2892;SDS011;1456;51.840;12.184;2023-05-07T08:03:34;1.00;;;0.97;;
2892;SDS011;1456;51.840;12.184;2023-05-07T08:06:00;0.60;;;0.60;;
2892;SDS011;1456;51.840;12.184;2023-05-07T08:08:27;0.60;;;0.60;;
2892;SDS011;1456;51.840;12.184;2023-05-07T08:10:52;0.90;;;0.90;;
2892;SDS011;1456;51.840;12.184;2023-05-07T08:13:18;1.50;;;1.00;;
2892;SDS011;1456;51.840;12.184;2023-05-07T08:15:43;0.77;;;0.77;;
2892;SDS011;1456;51.840;12.184;2023-05-07T08:18:09;1.00;;;1.00;;
2892;SDS011;1456;51.840;12.184;2023-05-07T08:20:35;1.00;;;1.00;;
2892;SDS011;1456;51.840;12.184;2023-05-07T08:23:04;0.87;;;0.83;;
2892;SDS011;1456;51.840;12.184;2023-05-07T08:25:32;2.47;;;2.27;;
2892;SDS011;1456;51.840;12.184;2023-05-07T08:27:59;1.17;;;1.07;;
2892;SDS011;1456;51.840;12.184;2023-05-07T08:30:24;1.13;;;1.13;;
2892;SDS011;1456;51.840;12.184;2023-05-07T08:32:50;0.80;;;0.80;;
2892;SDS011;1456;51.840;12.184;2023-05-07T08:35:16;2.20;;;0.70;;
2892;SDS011;1456;51.840;12.184;2023-05-07T08:37:42;0.63;;;0.63;;
2892;SDS011;1456;51.840;12.184;2023-05-07T08:40:09;1.10;;;1.00;;
2892;SDS011;1456;51.840;12.184;2023-05-07T08:42:35;1.13;;;0.67;;
2892;SDS011;1456;51.840;12.184;2023-05-07T08:45:04;0.83;;;0.83;;
2892;SDS011;1456;51.840;12.184;2023-05-07T08:47:46;0.60;;;0.50;;
2892;SDS011;1456;51.840;12.184;2023-05-07T08:50:15;0.90;;;0.90;;
2892;SDS011;1456;51.840;12.184;2023-05-07T08:52:42;3.70;;;1.80;;
2892;SDS011;1456;51.840;12.184;2023-05-07T08:55:08;0.97;;;0.97;;
2892;SDS011;1456;51.840;12.184;2023-05-07T08:57:34;0.73;;;0.67;;
2892;SDS011;1456;51.840;12.184;2023-05-07T09:00:01;0.83;;;0.83;;
2892;SDS011;1456;51.840;12.184;2023-05-07T09:02:29;1.13;;;1.13;;
2892;SDS011;1456;51.840;12.184;2023-05-07T09:04:54;0.70;;;0.70;;
2892;SDS011;1456;51.840;12.184;2023-05-07T09:07:25;1.60;;;1.23;;
2892;SDS011;1456;51.840;12.184;2023-05-07T09:09:51;1.27;;;1.27;;
2892;SDS011;1456;51.840;12.184;2023-05-07T09:12:17;2.20;;;0.80;;
2892;SDS011;1456;51.840;12.184;2023-05-07T09:14:44;1.43;;;1.33;;
2892;SDS011;1456;51.840;12.184;2023-05-07T09:17:11;1.17;;;1.17;;
2892;SDS011;1456;51.840;12.184;2023-05-07T09:19:37;1.13;;;1.13;;
2892;SDS011;1456;51.840;12.184;2023-05-07T09:22:04;1.20;;;1.20;;
2892;SDS011;1456;51.840;12.184;2023-05-07T09:24:34;1.77;;;1.70;;
2892;SDS011;1456;51.840;12.184;2023-05-07T09:27:02;0.90;;;0.90;;
2892;SDS011;1456;51.840;12.184;2023-05-07T09:29:31;1.17;;;1.17;;
2892;SDS011;1456;51.840;12.184;2023-05-07T09:34:36;0.77;;;0.77;;
2892;SDS011;1456;51.840;12.184;2023-05-07T09:37:02;1.70;;;1.70;;
2892;SDS011;1456;51.840;12.184;2023-05-07T09:39:46;1.17;;;1.17;;
2892;SDS011;1456;51.840;12.184;2023-05-07T09:42:13;2.20;;;1.63;;
2892;SDS011;1456;51.840;12.184;2023-05-07T09:44:45;2.00;;;1.90;;
2892;SDS011;1456;51.840;12.184;2023-05-07T09:47:17;0.80;;;0.80;;
2892;SDS011;1456;51.840;12.184;2023-05-07T09:49:46;0.90;;;0.90;;
2892;SDS011;1456;51.840;12.184;2023-05-07T09:52:13;1.10;;;1.10;;
2892;SDS011;1456;51.840;12.184;2023-05-07T09:54:40;0.77;;;0.77;;
2892;SDS011;1456;51.840;12.184;2023-05-07T09:57:10;0.90;;;0.90;;
2892;SDS011;1456;51.840;12.184;2023-05-07T09:59:37;1.00;;;1.00;;
2892;SDS011;1456;51.840;12.184;2023-05-07T10:02:03;1.50;;;1.40;;
2892;SDS011;1456;51.840;12.184;2023-05-07T10:04:31;1.13;;;1.03;;
2892;SDS011;1456;51.840;12.184;2023-05-07T10:06:58;1.47;;;1.47;;
2892;SDS011;1456;51.840;12.184;2023-05-07T10:09:25;1.23;;;1.23;;
2892;SDS011;1456;51.840;12.184;2023-05-07T10:11:51;1.83;;;1.73;;
2892;SDS011;1456;51.840;12.184;2023-05-07T10:14:19;1.23;;;1.23;;
2892;SDS011;1456;51.840;12.184;2023-05-07T10:16:50;1.10;;;1.10;;
2892;SDS011;1456;51.840;12.184;2023-05-07T10:19:17;1.30;;;1.30;;
2892;SDS011;1456;51.840;12.184;2023-05-07T10:21:51;2.60;;;1.93;;
2892;SDS011;1456;51.840;12.184;2023-05-07T10:24:26;2.67;;;2.13;;
2892;SDS011;1456;51.840;12.184;2023-05-07T10:26:59;1.20;;;1.20;;
2892;SDS011;1456;51.840;12.184;2023-05-07T10:32:24;0.80;;;0.80;;
2892;SDS011;1456;51.840;12.184;2023-05-07T10:34:54;2.40;;;1.90;;
2892;SDS011;1456;51.840;12.184;2023-05-07T10:37:24;2.00;;;1.50;;
2892;SDS011;1456;51.840;12.184;2023-05-07T10:39:51;1.80;;;1.80;;
2892;SDS011;1456;51.840;12.184;2023-05-07T10:42:18;2.13;;;2.13;;
2892;SDS011;1456;51.840;12.184;2023-05-07T10:44:45;1.77;;;1.67;;
2892;SDS011;1456;51.840;12.184;2023-05-07T10:47:11;3.00;;;2.80;;
2892;SDS011;1456;51.840;12.184;2023-05-07T10:52:21;1.93;;;1.93;;
2892;SDS011;1456;51.840;12.184;2023-05-07T10:57:50;2.53;;;2.53;;
2892;SDS011;1456;51.840;12.184;2023-05-07T11:05:27;3.47;;;3.37;;
2892;SDS011;1456;51.840;12.184;2023-05-07T11:07:59;3.43;;;3.33;;
2892;SDS011;1456;51.840;12.184;2023-05-07T11:13:42;2.43;;;2.43;;
2892;SDS011;1456;51.840;12.184;2023-05-07T11:16:18;2.47;;;2.40;;
2892;SDS011;1456;51.840;12.184;2023-05-07T11:18:52;2.00;;;2.00;;
2892;SDS011;1456;51.840;12.184;2023-05-07T11:21:36;2.73;;;2.70;;
2892;SDS011;1456;51.840;12.184;2023-05-07T11:24:04;2.43;;;2.40;;
2892;SDS011;1456;51.840;12.184;2023-05-07T11:26:41;2.40;;;2.40;;
2892;SDS011;1456;51.840;12.184;2023-05-07T11:29:12;2.50;;;2.40;;
2892;SDS011;1456;51.840;12.184;2023-05-07T11:31:42;1.97;;;1.97;;
2892;SDS011;1456;51.840;12.184;2023-05-07T11:34:08;2.97;;;2.97;;
2892;SDS011;1456;51.840;12.184;2023-05-07T11:36:40;3.00;;;2.97;;
2892;SDS011;1456;51.840;12.184;2023-05-07T11:39:23;2.47;;;2.47;;
2892;SDS011;1456;51.840;12.184;2023-05-07T11:41:51;2.47;;;2.47;;
2892;SDS011;1456;51.840;12.184;2023-05-07T11:44:18;1.93;;;1.93;;
2892;SDS011;1456;51.840;12.184;2023-05-07T11:46:46;2.73;;;2.73;;
2892;SDS011;1456;51.840;12.184;2023-05-07T11:49:13;2.57;;;2.57;;
2892;SDS011;1456;51.840;12.184;2023-05-07T11:51:39;3.20;;;3.10;;
2892;SDS011;1456;51.840;12.184;2023-05-07T11:54:05;2.50;;;2.50;;
2892;SDS011;1456;51.840;12.184;2023-05-07T11:56:36;2.17;;;2.17;;
2892;SDS011;1456;51.840;12.184;2023-05-07T11:59:03;4.40;;;3.80;;
2892;SDS011;1456;51.840;12.184;2023-05-07T12:01:31;2.43;;;2.43;;
2892;SDS011;1456;51.840;12.184;2023-05-07T12:04:02;2.90;;;2.90;;
2892;SDS011;1456;51.840;12.184;2023-05-07T12:06:29;2.77;;;2.77;;
2892;SDS011;1456;51.840;12.184;2023-05-07T12:08:55;2.67;;;2.67;;
2892;SDS011;1456;51.840;12.184;2023-05-07T12:11:22;6.73;;;6.53;;
2892;SDS011;1456;51.840;12.184;2023-05-07T12:13:49;6.70;;;6.60;;
2892;SDS011;1456;51.840;12.184;2023-05-07T12:16:15;5.87;;;5.77;;
2892;SDS011;1456;51.840;12.184;2023-05-07T12:18:44;5.63;;;5.53;;
2892;SDS011;1456;51.840;12.184;2023-05-07T12:21:11;5.70;;;5.60;;
2892;SDS011;1456;51.840;12.184;2023-05-07T12:23:38;5.17;;;5.10;;
2892;SDS011;1456;51.840;12.184;2023-05-07T12:26:04;5.33;;;5.23;;
2892;SDS011;1456;51.840;12.184;2023-05-07T12:28:32;7.10;;;7.00;;
2892;SDS011;1456;51.840;12.184;2023-05-07T12:31:02;6.83;;;6.70;;
2892;SDS011;1456;51.840;12.184;2023-05-07T12:33:28;5.50;;;5.50;;
2892;SDS011;1456;51.840;12.184;2023-05-07T12:35:56;6.43;;;6.13;;
2892;SDS011;1456;51.840;12.184;2023-05-07T12:38:23;5.40;;;5.40;;
2892;SDS011;1456;51.840;12.184;2023-05-07T12:40:53;6.87;;;6.77;;
2892;SDS011;1456;51.840;12.184;2023-05-07T12:43:20;7.30;;;6.57;;
2892;SDS011;1456;51.840;12.184;2023-05-07T12:45:49;6.17;;;6.07;;
2892;SDS011;1456;51.840;12.184;2023-05-07T12:48:17;6.20;;;6.10;;
2892;SDS011;1456;51.840;12.184;2023-05-07T12:50:44;5.50;;;5.40;;
2892;SDS011;1456;51.840;12.184;2023-05-07T12:53:11;6.40;;;6.40;;
2892;SDS011;1456;51.840;12.184;2023-05-07T12:55:45;6.50;;;6.40;;
2892;SDS011;1456;51.840;12.184;2023-05-07T12:58:30;5.07;;;5.07;;
2892;SDS011;1456;51.840;12.184;2023-05-07T13:01:00;7.00;;;6.60;;
2892;SDS011;1456;51.840;12.184;2023-05-07T13:03:31;7.53;;;7.43;;
2892;SDS011;1456;51.840;12.184;2023-05-07T13:05:59;7.77;;;7.57;;
2892;SDS011;1456;51.840;12.184;2023-05-07T13:08:33;6.20;;;6.20;;
2892;SDS011;1456;51.840;12.184;2023-05-07T13:11:02;7.60;;;7.50;;
2892;SDS011;1456;51.840;12.184;2023-05-07T13:13:33;6.07;;;5.97;;
2892;SDS011;1456;51.840;12.184;2023-05-07T13:16:02;3.53;;;3.43;;
2892;SDS011;1456;51.840;12.184;2023-05-07T13:18:33;3.50;;;3.50;;
2892;SDS011;1456;51.840;12.184;2023-05-07T13:20:59;3.63;;;3.63;;
2892;SDS011;1456;51.840;12.184;2023-05-07T13:23:25;4.07;;;3.97;;
2892;SDS011;1456;51.840;12.184;2023-05-07T13:25:51;3.07;;;3.07;;
2892;SDS011;1456;51.840;12.184;2023-05-07T13:28:26;4.27;;;4.17;;
2892;SDS011;1456;51.840;12.184;2023-05-07T13:30:53;5.77;;;5.37;;
2892;SDS011;1456;51.840;12.184;2023-05-07T13:33:19;3.43;;;3.23;;
2892;SDS011;1456;51.840;12.184;2023-05-07T13:35:45;3.23;;;3.13;;
2892;SDS011;1456;51.840;12.184;2023-05-07T13:38:10;3.70;;;3.60;;
2892;SDS011;1456;51.840;12.184;2023-05-07T13:40:36;2.90;;;2.90;;
2892;SDS011;1456;51.840;12.184;2023-05-07T13:43:03;3.30;;;3.30;;
2892;SDS011;1456;51.840;12.184;2023-05-07T13:45:30;3.97;;;3.90;;
2892;SDS011;1456;51.840;12.184;2023-05-07T13:47:57;3.07;;;3.07;;
2892;SDS011;1456;51.840;12.184;2023-05-07T13:50:23;4.07;;;3.97;;
2892;SDS011;1456;51.840;12.184;2023-05-07T13:52:50;3.00;;;3.00;;
2892;SDS011;1456;51.840;12.184;2023-05-07T13:55:18;3.87;;;3.77;;
2892;SDS011;1456;51.840;12.184;2023-05-07T13:57:47;3.00;;;3.00;;
2892;SDS011;1456;51.840;12.184;2023-05-07T14:00:19;3.07;;;3.07;;
2892;SDS011;1456;51.840;12.184;2023-05-07T14:02:46;4.40;;;4.30;;
2892;SDS011;1456;51.840;12.184;2023-05-07T14:05:12;4.77;;;4.50;;
2892;SDS011;1456;51.840;12.184;2023-05-07T14:07:38;7.33;;;7.23;;
2892;SDS011;1456;51.840;12.184;2023-05-07T14:10:04;8.10;;;8.00;;
2892;SDS011;1456;51.840;12.184;2023-05-07T14:12:32;9.03;;;8.73;;
2892;SDS011;1456;51.840;12.184;2023-05-07T14:14:58;9.07;;;8.97;;
2892;SDS011;1456;51.840;12.184;2023-05-07T14:17:24;8.10;;;8.00;;
2892;SDS011;1456;51.840;12.184;2023-05-07T14:19:53;9.03;;;8.93;;
2892;SDS011;1456;51.840;12.184;2023-05-07T14:22:19;8.20;;;8.10;;
2892;SDS011;1456;51.840;12.184;2023-05-07T14:24:45;8.60;;;8.50;;
2892;SDS011;1456;51.840;12.184;2023-05-07T14:27:11;9.67;;;9.57;;
2892;SDS011;1456;51.840;12.184;2023-05-07T14:29:37;8.80;;;8.70;;
2892;SDS011;1456;51.840;12.184;2023-05-07T14:32:04;8.17;;;8.07;;
2892;SDS011;1456;51.840;12.184;2023-05-07T14:34:30;8.93;;;8.83;;
2892;SDS011;1456;51.840;12.184;2023-05-07T14:36:59;9.50;;;9.30;;
2892;SDS011;1456;51.840;12.184;2023-05-07T14:39:25;8.57;;;8.47;;
2892;SDS011;1456;51.840;12.184;2023-05-07T14:41:51;8.17;;;8.03;;
2892;SDS011;1456;51.840;12.184;2023-05-07T14:44:21;4.67;;;4.57;;
2892;SDS011;1456;51.840;12.184;2023-05-07T14:46:47;6.37;;;6.27;;
2892;SDS011;1456;51.840;12.184;2023-05-07T14:49:13;7.70;;;7.60;;
2892;SDS011;1456;51.840;12.184;2023-05-07T14:51:42;8.77;;;8.63;;
2892;SDS011;1456;51.840;12.184;2023-05-07T14:54:12;8.40;;;8.30;;
2892;SDS011;1456;51.840;12.184;2023-05-07T14:56:39;9.23;;;9.13;;
2892;SDS011;1456;51.840;12.184;2023-05-07T14:59:06;8.60;;;8.50;;
2892;SDS011;1456;51.840;12.184;2023-05-07T15:01:32;9.43;;;9.17;;
2892;SDS011;1456;51.840;12.184;2023-05-07T15:03:59;7.93;;;7.83;;
2892;SDS011;1456;51.840;12.184;2023-05-07T15:06:26;8.40;;;8.30;;
2892;SDS011;1456;51.840;12.184;2023-05-07T15:08:53;9.50;;;9.40;;
2892;SDS011;1456;51.840;12.184;2023-05-07T15:11:18;4.43;;;4.43;;
2892;SDS011;1456;51.840;12.184;2023-05-07T15:13:44;7.03;;;6.93;;
2892;SDS011;1456;51.840;12.184;2023-05-07T15:16:09;8.53;;;8.43;;
2892;SDS011;1456;51.840;12.184;2023-05-07T15:21:05;9.30;;;9.10;;
2892;SDS011;1456;51.840;12.184;2023-05-07T15:23:30;4.20;;;4.20;;